sensor_id;sensor_type;location;lat;lon;timestamp;pressure;altitude;pressure_sealevel;temperature
70389;BMP280;58659;49.050;8.530;2023-06-24T00:01:30;100705.56;;;16.46
70389;BMP280;58659;49.050;8.530;2023-06-24T00:03:56;100703.28;;;16.41
70389;BMP280;58659;49.050;8.530;2023-06-24T00:06:22;100684.44;;;16.39
70389;BMP280;58659;49.050;8.530;2023-06-24T00:08:50;100688.19;;;16.34
70389;BMP280;58659;49.050;8.530;2023-06-24T00:11:16;100683.97;;;16.30
70389;BMP280;58659;49.050;8.530;2023-06-24T00:13:42;100683.97;;;16.23
70389;BMP280;58659;49.050;8.530;2023-06-24T00:16:09;100681.28;;;16.19
70389;BMP280;58659;49.050;8.530;2023-06-24T00:18:35;100676.00;;;16.16
70389;BMP280;58659;49.050;8.530;2023-06-24T00:21:01;100680.88;;;16.14
70389;BMP280;58659;49.050;8.530;2023-06-24T00:23:27;100678.22;;;16.10
70389;BMP280;58659;49.050;8.530;2023-06-24T00:25:54;100687.66;;;16.15
70389;BMP280;58659;49.050;8.530;2023-06-24T00:28:20;100689.59;;;16.21
70389;BMP280;58659;49.050;8.530;2023-06-24T00:30:47;100688.13;;;16.27
70389;BMP280;58659;49.050;8.530;2023-06-24T00:33:12;100681.31;;;16.23
70389;BMP280;58659;49.050;8.530;2023-06-24T00:35:39;100670.28;;;16.07
70389;BMP280;58659;49.050;8.530;2023-06-24T00:38:04;100662.66;;;15.94
70389;BMP280;58659;49.050;8.530;2023-06-24T00:40:30;100664.53;;;15.87
70389;BMP280;58659;49.050;8.530;2023-06-24T00:42:55;100661.47;;;15.81
70389;BMP280;58659;49.050;8.530;2023-06-24T00:45:22;100661.13;;;15.86
70389;BMP280;58659;49.050;8.530;2023-06-24T00:47:47;100650.94;;;15.85
70389;BMP280;58659;49.050;8.530;2023-06-24T00:50:15;100651.97;;;15.77
70389;BMP280;58659;49.050;8.530;2023-06-24T00:52:40;100630.44;;;15.64
70389;BMP280;58659;49.050;8.530;2023-06-24T00:55:11;100627.00;;;15.57
70389;BMP280;58659;49.050;8.530;2023-06-24T00:57:39;100624.66;;;15.48
70389;BMP280;58659;49.050;8.530;2023-06-24T01:00:05;100615.19;;;15.40
70389;BMP280;58659;49.050;8.530;2023-06-24T01:02:42;100607.25;;;15.37
70389;BMP280;58659;49.050;8.530;2023-06-24T01:05:10;100609.13;;;15.36
70389;BMP280;58659;49.050;8.530;2023-06-24T01:07:37;100620.47;;;15.40
70389;BMP280;58659;49.050;8.530;2023-06-24T01:10:03;100618.19;;;15.39
70389;BMP280;58659;49.050;8.530;2023-06-24T01:12:37;100625.75;;;15.40
70389;BMP280;58659;49.050;8.530;2023-06-24T01:15:04;100625.03;;;15.47
70389;BMP280;58659;49.050;8.530;2023-06-24T01:23:06;100628.28;;;15.33
70389;BMP280;58659;49.050;8.530;2023-06-24T01:25:59;100616.91;;;15.22
70389;BMP280;58659;49.050;8.530;2023-06-24T01:31:48;100586.88;;;14.86
70389;BMP280;58659;49.050;8.530;2023-06-24T01:39:46;100546.72;;;14.59
70389;BMP280;58659;49.050;8.530;2023-06-24T01:42:14;100523.25;;;14.44
70389;BMP280;58659;49.050;8.530;2023-06-24T01:44:42;100502.72;;;14.23
70389;BMP280;58659;49.050;8.530;2023-06-24T01:47:09;100480.13;;;14.15
70389;BMP280;58659;49.050;8.530;2023-06-24T01:49:38;100473.34;;;14.14
70389;BMP280;58659;49.050;8.530;2023-06-24T01:52:07;100452.66;;;14.09
70389;BMP280;58659;49.050;8.530;2023-06-24T01:54:34;100444.31;;;14.03
70389;BMP280;58659;49.050;8.530;2023-06-24T01:57:02;100449.19;;;14.05
70389;BMP280;58659;49.050;8.530;2023-06-24T01:59:29;100449.28;;;14.12
70389;BMP280;58659;49.050;8.530;2023-06-24T02:01:55;100438.84;;;14.19
70389;BMP280;58659;49.050;8.530;2023-06-24T02:04:22;100438.94;;;14.26
70389;BMP280;58659;49.050;8.530;2023-06-24T02:06:49;100459.22;;;14.29
70389;BMP280;58659;49.050;8.530;2023-06-24T02:09:17;100471.59;;;14.25
70389;BMP280;58659;49.050;8.530;2023-06-24T02:11:44;100477.41;;;14.11
70389;BMP280;58659;49.050;8.530;2023-06-24T02:14:10;100476.31;;;14.12
70389;BMP280;58659;49.050;8.530;2023-06-24T02:16:37;100460.78;;;14.00
70389;BMP280;58659;49.050;8.530;2023-06-24T02:19:08;100461.19;;;14.02
70389;BMP280;58659;49.050;8.530;2023-06-24T02:21:35;100449.03;;;13.91
70389;BMP280;58659;49.050;8.530;2023-06-24T02:24:02;100443.69;;;13.84
70389;BMP280;58659;49.050;8.530;2023-06-24T02:26:27;100432.38;;;13.80
70389;BMP280;58659;49.050;8.530;2023-06-24T02:28:53;100418.69;;;13.67
70389;BMP280;58659;49.050;8.530;2023-06-24T02:31:19;100412.19;;;13.57
70389;BMP280;58659;49.050;8.530;2023-06-24T02:33:44;100415.69;;;13.65
70389;BMP280;58659;49.050;8.530;2023-06-24T02:36:10;100408.97;;;13.68
70389;BMP280;58659;49.050;8.530;2023-06-24T02:38:36;100429.69;;;13.73
70389;BMP280;58659;49.050;8.530;2023-06-24T02:41:01;100424.09;;;13.78
70389;BMP280;58659;49.050;8.530;2023-06-24T02:43:29;100431.66;;;13.83
70389;BMP280;58659;49.050;8.530;2023-06-24T02:45:54;100441.41;;;13.82
70389;BMP280;58659;49.050;8.530;2023-06-24T02:48:20;100436.50;;;13.81
70389;BMP280;58659;49.050;8.530;2023-06-24T02:50:46;100426.31;;;13.76
70389;BMP280;58659;49.050;8.530;2023-06-24T02:53:12;100423.94;;;13.67
70389;BMP280;58659;49.050;8.530;2023-06-24T02:55:40;100417.88;;;13.63
70389;BMP280;58659;49.050;8.530;2023-06-24T02:58:06;100436.69;;;13.65
70389;BMP280;58659;49.050;8.530;2023-06-24T03:00:33;100440.09;;;13.69
70389;BMP280;58659;49.050;8.530;2023-06-24T03:03:00;100450.22;;;13.67
70389;BMP280;58659;49.050;8.530;2023-06-24T03:05:27;100443.47;;;13.70
70389;BMP280;58659;49.050;8.530;2023-06-24T03:07:52;100460.75;;;13.71
70389;BMP280;58659;49.050;8.530;2023-06-24T03:10:18;100451.72;;;13.68
70389;BMP280;58659;49.050;8.530;2023-06-24T03:12:43;100449.91;;;13.72
70389;BMP280;58659;49.050;8.530;2023-06-24T03:15:09;100460.88;;;13.78
70389;BMP280;58659;49.050;8.530;2023-06-24T03:17:35;100453.66;;;13.75
70389;BMP280;58659;49.050;8.530;2023-06-24T03:20:00;100447.31;;;13.76
70389;BMP280;58659;49.050;8.530;2023-06-24T03:22:26;100459.78;;;13.79
70389;BMP280;58659;49.050;8.530;2023-06-24T03:24:51;100464.50;;;13.70
70389;BMP280;58659;49.050;8.530;2023-06-24T03:27:18;100445.00;;;13.71
70389;BMP280;58659;49.050;8.530;2023-06-24T03:29:44;100454.50;;;13.79
70389;BMP280;58659;49.050;8.530;2023-06-24T03:32:09;100471.72;;;13.76
70389;BMP280;58659;49.050;8.530;2023-06-24T03:34:34;100471.03;;;13.79
70389;BMP280;58659;49.050;8.530;2023-06-24T03:37:00;100470.56;;;13.74
70389;BMP280;58659;49.050;8.530;2023-06-24T03:39:25;100478.28;;;13.89
70389;BMP280;58659;49.050;8.530;2023-06-24T03:41:50;100500.19;;;14.00
70389;BMP280;58659;49.050;8.530;2023-06-24T03:44:16;100505.28;;;14.16
70389;BMP280;58659;49.050;8.530;2023-06-24T03:46:41;100510.22;;;14.21
70389;BMP280;58659;49.050;8.530;2023-06-24T03:49:06;100516.97;;;14.22
70389;BMP280;58659;49.050;8.530;2023-06-24T03:51:32;100530.94;;;14.26
70389;BMP280;58659;49.050;8.530;2023-06-24T03:53:57;100527.56;;;14.29
70389;BMP280;58659;49.050;8.530;2023-06-24T03:56:23;100544.00;;;14.22
70389;BMP280;58659;49.050;8.530;2023-06-24T03:58:48;100528.91;;;14.16
70389;BMP280;58659;49.050;8.530;2023-06-24T04:01:14;100523.66;;;14.16
70389;BMP280;58659;49.050;8.530;2023-06-24T04:03:39;100522.09;;;14.11
70389;BMP280;58659;49.050;8.530;2023-06-24T04:06:04;100520.66;;;14.17
70389;BMP280;58659;49.050;8.530;2023-06-24T04:08:30;100517.78;;;14.26
70389;BMP280;58659;49.050;8.530;2023-06-24T04:10:56;100526.78;;;14.25
70389;BMP280;58659;49.050;8.530;2023-06-24T04:13:22;100523.06;;;14.26
70389;BMP280;58659;49.050;8.530;2023-06-24T04:15:47;100535.09;;;14.31
70389;BMP280;58659;49.050;8.530;2023-06-24T04:18:12;100514.84;;;14.35
70389;BMP280;58659;49.050;8.530;2023-06-24T04:20:38;100523.50;;;14.35
70389;BMP280;58659;49.050;8.530;2023-06-24T04:23:04;100532.91;;;14.36
70389;BMP280;58659;49.050;8.530;2023-06-24T04:25:31;100520.88;;;14.32
70389;BMP280;58659;49.050;8.530;2023-06-24T04:27:56;100510.00;;;14.33
70389;BMP280;58659;49.050;8.530;2023-06-24T04:30:22;100524.34;;;14.39
70389;BMP280;58659;49.050;8.530;2023-06-24T04:32:47;100557.13;;;14.52
70389;BMP280;58659;49.050;8.530;2023-06-24T04:35:13;100581.41;;;14.68
70389;BMP280;58659;49.050;8.530;2023-06-24T04:37:38;100607.91;;;14.86
70389;BMP280;58659;49.050;8.530;2023-06-24T04:40:04;100634.72;;;14.99
70389;BMP280;58659;49.050;8.530;2023-06-24T04:42:29;100657.44;;;15.14
70389;BMP280;58659;49.050;8.530;2023-06-24T04:44:55;100671.38;;;15.18
70389;BMP280;58659;49.050;8.530;2023-06-24T04:47:20;100669.28;;;15.30
70389;BMP280;58659;49.050;8.530;2023-06-24T04:49:45;100678.00;;;15.38
70389;BMP280;58659;49.050;8.530;2023-06-24T04:52:12;100682.97;;;15.47
70389;BMP280;58659;49.050;8.530;2023-06-24T04:54:37;100690.13;;;15.50
70389;BMP280;58659;49.050;8.530;2023-06-24T04:57:05;100703.72;;;15.52
70389;BMP280;58659;49.050;8.530;2023-06-24T04:59:31;100705.25;;;15.56
70389;BMP280;58659;49.050;8.530;2023-06-24T05:01:56;100700.38;;;15.58
70389;BMP280;58659;49.050;8.530;2023-06-24T05:04:21;100698.19;;;15.64
70389;BMP280;58659;49.050;8.530;2023-06-24T05:06:46;100708.03;;;15.70
70389;BMP280;58659;49.050;8.530;2023-06-24T05:09:12;100714.84;;;15.75
70389;BMP280;58659;49.050;8.530;2023-06-24T05:11:40;100718.28;;;15.82
70389;BMP280;58659;49.050;8.530;2023-06-24T05:14:05;100730.00;;;15.88
70389;BMP280;58659;49.050;8.530;2023-06-24T05:16:30;100732.34;;;15.97
70389;BMP280;58659;49.050;8.530;2023-06-24T05:18:56;100735.41;;;16.03
70389;BMP280;58659;49.050;8.530;2023-06-24T05:21:21;100746.38;;;16.08
70389;BMP280;58659;49.050;8.530;2023-06-24T05:23:46;100751.69;;;16.15
70389;BMP280;58659;49.050;8.530;2023-06-24T05:26:12;100757.78;;;16.23
70389;BMP280;58659;49.050;8.530;2023-06-24T05:28:37;100768.00;;;16.28
70389;BMP280;58659;49.050;8.530;2023-06-24T05:31:02;100762.03;;;16.38
70389;BMP280;58659;49.050;8.530;2023-06-24T05:33:27;100754.56;;;16.47
70389;BMP280;58659;49.050;8.530;2023-06-24T05:35:52;100760.66;;;16.58
70389;BMP280;58659;49.050;8.530;2023-06-24T05:38:18;100761.81;;;16.68
70389;BMP280;58659;49.050;8.530;2023-06-24T05:40:43;100775.84;;;16.75
70389;BMP280;58659;49.050;8.530;2023-06-24T05:43:08;100792.44;;;16.83
70389;BMP280;58659;49.050;8.530;2023-06-24T05:45:34;100782.69;;;16.90
70389;BMP280;58659;49.050;8.530;2023-06-24T05:47:59;100794.78;;;17.02
70389;BMP280;58659;49.050;8.530;2023-06-24T05:50:24;100776.00;;;17.18
70389;BMP280;58659;49.050;8.530;2023-06-24T05:52:50;100772.72;;;17.56
70389;BMP280;58659;49.050;8.530;2023-06-24T05:55:15;100800.31;;;17.94
70389;BMP280;58659;49.050;8.530;2023-06-24T05:57:40;100804.84;;;18.21
70389;BMP280;58659;49.050;8.530;2023-06-24T06:00:06;100811.19;;;18.66
70389;BMP280;58659;49.050;8.530;2023-06-24T06:02:32;100818.25;;;19.01
70389;BMP280;58659;49.050;8.530;2023-06-24T06:04:57;100828.31;;;19.34
70389;BMP280;58659;49.050;8.530;2023-06-24T06:07:22;100824.44;;;19.53
70389;BMP280;58659;49.050;8.530;2023-06-24T06:09:48;100837.22;;;19.65
70389;BMP280;58659;49.050;8.530;2023-06-24T06:12:13;100835.28;;;19.69
70389;BMP280;58659;49.050;8.530;2023-06-24T06:14:38;100837.16;;;19.72
70389;BMP280;58659;49.050;8.530;2023-06-24T06:17:04;100829.09;;;19.86
70389;BMP280;58659;49.050;8.530;2023-06-24T06:19:30;100833.63;;;19.89
70389;BMP280;58659;49.050;8.530;2023-06-24T06:21:55;100840.59;;;19.69
70389;BMP280;58659;49.050;8.530;2023-06-24T06:24:20;100837.25;;;19.62
70389;BMP280;58659;49.050;8.530;2023-06-24T06:26:46;100825.72;;;19.82
70389;BMP280;58659;49.050;8.530;2023-06-24T06:29:11;100830.78;;;20.14
70389;BMP280;58659;49.050;8.530;2023-06-24T06:31:37;100834.09;;;20.62
70389;BMP280;58659;49.050;8.530;2023-06-24T06:34:03;100847.88;;;21.11
70389;BMP280;58659;49.050;8.530;2023-06-24T06:36:28;100848.41;;;21.55
70389;BMP280;58659;49.050;8.530;2023-06-24T06:38:53;100854.13;;;21.81
70389;BMP280;58659;49.050;8.530;2023-06-24T06:41:19;100848.81;;;21.81
70389;BMP280;58659;49.050;8.530;2023-06-24T06:43:52;100860.06;;;21.88
70389;BMP280;58659;49.050;8.530;2023-06-24T06:46:18;100858.47;;;22.73
70389;BMP280;58659;49.050;8.530;2023-06-24T06:48:43;100859.63;;;23.27
70389;BMP280;58659;49.050;8.530;2023-06-24T06:51:08;100865.84;;;24.14
70389;BMP280;58659;49.050;8.530;2023-06-24T06:53:33;100867.47;;;24.53
70389;BMP280;58659;49.050;8.530;2023-06-24T06:55:58;100870.06;;;24.81
70389;BMP280;58659;49.050;8.530;2023-06-24T06:58:24;100854.88;;;25.29
70389;BMP280;58659;49.050;8.530;2023-06-24T07:00:49;100866.50;;;25.69
70389;BMP280;58659;49.050;8.530;2023-06-24T07:03:15;100862.06;;;26.09
70389;BMP280;58659;49.050;8.530;2023-06-24T07:05:40;100865.75;;;26.24
70389;BMP280;58659;49.050;8.530;2023-06-24T07:08:06;100869.91;;;26.56
70389;BMP280;58659;49.050;8.530;2023-06-24T07:10:31;100864.00;;;27.10
70389;BMP280;58659;49.050;8.530;2023-06-24T07:12:56;100862.66;;;27.23
70389;BMP280;58659;49.050;8.530;2023-06-24T07:15:24;100867.47;;;27.64
70389;BMP280;58659;49.050;8.530;2023-06-24T07:17:50;100868.28;;;28.16
70389;BMP280;58659;49.050;8.530;2023-06-24T07:20:15;100874.03;;;28.41
70389;BMP280;58659;49.050;8.530;2023-06-24T07:22:40;100866.78;;;28.56
70389;BMP280;58659;49.050;8.530;2023-06-24T07:25:06;100873.88;;;28.78
70389;BMP280;58659;49.050;8.530;2023-06-24T07:27:31;100869.91;;;29.11
70389;BMP280;58659;49.050;8.530;2023-06-24T07:29:57;100873.41;;;29.26
70389;BMP280;58659;49.050;8.530;2023-06-24T07:32:22;100873.09;;;29.48
70389;BMP280;58659;49.050;8.530;2023-06-24T07:34:47;100875.56;;;29.52
70389;BMP280;58659;49.050;8.530;2023-06-24T07:37:12;100877.84;;;29.82
70389;BMP280;58659;49.050;8.530;2023-06-24T07:39:38;100870.31;;;29.86
70389;BMP280;58659;49.050;8.530;2023-06-24T07:42:03;100874.69;;;29.84
70389;BMP280;58659;49.050;8.530;2023-06-24T07:44:29;100867.34;;;29.84
70389;BMP280;58659;49.050;8.530;2023-06-24T07:46:54;100872.53;;;30.02
70389;BMP280;58659;49.050;8.530;2023-06-24T07:49:19;100871.88;;;30.07
70389;BMP280;58659;49.050;8.530;2023-06-24T07:51:45;100870.28;;;30.15
70389;BMP280;58659;49.050;8.530;2023-06-24T07:54:10;100875.72;;;30.35
70389;BMP280;58659;49.050;8.530;2023-06-24T07:56:35;100877.66;;;30.70
70389;BMP280;58659;49.050;8.530;2023-06-24T07:59:01;100873.50;;;30.89
70389;BMP280;58659;49.050;8.530;2023-06-24T08:01:27;100874.03;;;30.93
70389;BMP280;58659;49.050;8.530;2023-06-24T08:03:52;100871.06;;;30.91
70389;BMP280;58659;49.050;8.530;2023-06-24T08:06:18;100868.44;;;31.16
70389;BMP280;58659;49.050;8.530;2023-06-24T08:08:43;100871.19;;;31.22
70389;BMP280;58659;49.050;8.530;2023-06-24T08:11:11;100877.00;;;31.41
70389;BMP280;58659;49.050;8.530;2023-06-24T08:13:36;100860.06;;;31.71
70389;BMP280;58659;49.050;8.530;2023-06-24T08:16:01;100868.25;;;31.82
70389;BMP280;58659;49.050;8.530;2023-06-24T08:18:27;100858.72;;;31.81
70389;BMP280;58659;49.050;8.530;2023-06-24T08:20:53;100857.22;;;31.80
70389;BMP280;58659;49.050;8.530;2023-06-24T08:23:18;100857.06;;;31.95
70389;BMP280;58659;49.050;8.530;2023-06-24T08:25:43;100868.03;;;32.17
70389;BMP280;58659;49.050;8.530;2023-06-24T08:28:09;73326.13;;;-143.76
70389;BMP280;58659;49.050;8.530;2023-06-24T08:30:34;73326.13;;;-143.76
70389;BMP280;58659;49.050;8.530;2023-06-24T08:32:59;73326.13;;;-143.76
70389;BMP280;58659;49.050;8.530;2023-06-24T08:35:24;73326.13;;;-143.76
70389;BMP280;58659;49.050;8.530;2023-06-24T08:37:50;73326.13;;;-143.76
70389;BMP280;58659;49.050;8.530;2023-06-24T08:40:15;73326.13;;;-143.76
70389;BMP280;58659;49.050;8.530;2023-06-24T08:42:43;73326.13;;;-143.76
70389;BMP280;58659;49.050;8.530;2023-06-24T08:45:09;73326.13;;;-143.76
70389;BMP280;58659;49.050;8.530;2023-06-24T08:47:35;73326.13;;;-143.76
70389;BMP280;58659;49.050;8.530;2023-06-24T08:50:05;73326.13;;;-143.76
70389;BMP280;58659;49.050;8.530;2023-06-24T08:52:36;73326.13;;;-143.76
70389;BMP280;58659;49.050;8.530;2023-06-24T08:55:04;73326.13;;;-143.76
70389;BMP280;58659;49.050;8.530;2023-06-24T08:57:30;73326.13;;;-143.76
70389;BMP280;58659;49.050;8.530;2023-06-24T08:59:56;73326.13;;;-143.76
70389;BMP280;58659;49.050;8.530;2023-06-24T09:02:21;73326.13;;;-143.76
70389;BMP280;58659;49.050;8.530;2023-06-24T09:04:47;73326.13;;;-143.76
70389;BMP280;58659;49.050;8.530;2023-06-24T09:07:12;73326.13;;;-143.76
70389;BMP280;58659;49.050;8.530;2023-06-24T09:09:43;73326.13;;;-143.76
70389;BMP280;58659;49.050;8.530;2023-06-24T09:12:11;73326.13;;;-143.76
70389;BMP280;58659;49.050;8.530;2023-06-24T09:14:36;73326.13;;;-143.76
70389;BMP280;58659;49.050;8.530;2023-06-24T09:17:02;73326.13;;;-143.76
70389;BMP280;58659;49.050;8.530;2023-06-24T09:19:28;73326.13;;;-143.76
70389;BMP280;58659;49.050;8.530;2023-06-24T09:22:02;73326.13;;;-143.76
70389;BMP280;58659;49.050;8.530;2023-06-24T09:24:32;73326.13;;;-143.76
70389;BMP280;58659;49.050;8.530;2023-06-24T09:26:57;73326.13;;;-143.76
70389;BMP280;58659;49.050;8.530;2023-06-24T09:29:27;73326.13;;;-143.76
70389;BMP280;58659;49.050;8.530;2023-06-24T09:31:52;73326.13;;;-143.76
70389;BMP280;58659;49.050;8.530;2023-06-24T09:34:19;73326.13;;;-143.76
70389;BMP280;58659;49.050;8.530;2023-06-24T09:36:55;73326.13;;;-143.76
70389;BMP280;58659;49.050;8.530;2023-06-24T09:39:21;73326.13;;;-143.76
70389;BMP280;58659;49.050;8.530;2023-06-24T09:41:50;73326.13;;;-143.76
70389;BMP280;58659;49.050;8.530;2023-06-24T09:44:16;73326.13;;;-143.76
70389;BMP280;58659;49.050;8.530;2023-06-24T09:46:44;73326.13;;;-143.76
70389;BMP280;58659;49.050;8.530;2023-06-24T09:49:10;73326.13;;;-143.76
70389;BMP280;58659;49.050;8.530;2023-06-24T09:51:43;73326.13;;;-143.76
70389;BMP280;58659;49.050;8.530;2023-06-24T09:54:13;73326.13;;;-143.76
70389;BMP280;58659;49.050;8.530;2023-06-24T09:56:48;73326.13;;;-143.76
70389;BMP280;58659;49.050;8.530;2023-06-24T09:59:15;73326.13;;;-143.76
70389;BMP280;58659;49.050;8.530;2023-06-24T10:01:41;73326.13;;;-143.76
70389;BMP280;58659;49.050;8.530;2023-06-24T10:04:09;73326.13;;;-143.76
70389;BMP280;58659;49.050;8.530;2023-06-24T10:06:35;73326.13;;;-143.76
70389;BMP280;58659;49.050;8.530;2023-06-24T10:09:01;73326.13;;;-143.76
70389;BMP280;58659;49.050;8.530;2023-06-24T10:11:27;73326.13;;;-143.76
70389;BMP280;58659;49.050;8.530;2023-06-24T10:13:53;73326.13;;;-143.76
70389;BMP280;58659;49.050;8.530;2023-06-24T10:16:19;73326.13;;;-143.76
70389;BMP280;58659;49.050;8.530;2023-06-24T10:18:45;73326.13;;;-143.76
70389;BMP280;58659;49.050;8.530;2023-06-24T10:21:11;73326.13;;;-143.76
70389;BMP280;58659;49.050;8.530;2023-06-24T10:23:41;73326.13;;;-143.76
70389;BMP280;58659;49.050;8.530;2023-06-24T10:39:44;73326.13;;;-143.76
70389;BMP280;58659;49.050;8.530;2023-06-24T10:44:48;73326.13;;;-143.76
70389;BMP280;58659;49.050;8.530;2023-06-24T10:47:13;73326.13;;;-143.76
70389;BMP280;58659;49.050;8.530;2023-06-24T10:49:39;73326.13;;;-143.76
70389;BMP280;58659;49.050;8.530;2023-06-24T10:52:07;73326.13;;;-143.76
70389;BMP280;58659;49.050;8.530;2023-06-24T10:54:33;73326.13;;;-143.76
70389;BMP280;58659;49.050;8.530;2023-06-24T10:56:58;73326.13;;;-143.76
70389;BMP280;58659;49.050;8.530;2023-06-24T10:59:23;73326.13;;;-143.76
70389;BMP280;58659;49.050;8.530;2023-06-24T11:01:55;73326.13;;;-143.76
70389;BMP280;58659;49.050;8.530;2023-06-24T11:04:20;73326.13;;;-143.76
70389;BMP280;58659;49.050;8.530;2023-06-24T11:07:02;73326.13;;;-143.76
70389;BMP280;58659;49.050;8.530;2023-06-24T11:09:27;73326.13;;;-143.76
70389;BMP280;58659;49.050;8.530;2023-06-24T11:11:53;73326.13;;;-143.76
70389;BMP280;58659;49.050;8.530;2023-06-24T11:14:21;73326.13;;;-143.76
70389;BMP280;58659;49.050;8.530;2023-06-24T11:16:47;73326.13;;;-143.76
70389;BMP280;58659;49.050;8.530;2023-06-24T11:19:12;73326.13;;;-143.76
70389;BMP280;58659;49.050;8.530;2023-06-24T11:21:37;73326.13;;;-143.76
70389;BMP280;58659;49.050;8.530;2023-06-24T11:24:03;73326.13;;;-143.76
70389;BMP280;58659;49.050;8.530;2023-06-24T11:26:29;73326.13;;;-143.76
70389;BMP280;58659;49.050;8.530;2023-06-24T11:28:55;73326.13;;;-143.76
70389;BMP280;58659;49.050;8.530;2023-06-24T11:31:26;73326.13;;;-143.76
70389;BMP280;58659;49.050;8.530;2023-06-24T11:33:51;73326.13;;;-143.76
70389;BMP280;58659;49.050;8.530;2023-06-24T11:36:20;73326.13;;;-143.76
70389;BMP280;58659;49.050;8.530;2023-06-24T11:38:46;73326.13;;;-143.76
70389;BMP280;58659;49.050;8.530;2023-06-24T11:41:12;73326.13;;;-143.76
70389;BMP280;58659;49.050;8.530;2023-06-24T11:43:37;73326.13;;;-143.76
70389;BMP280;58659;49.050;8.530;2023-06-24T11:46:03;73326.13;;;-143.76
70389;BMP280;58659;49.050;8.530;2023-06-24T11:48:28;73326.13;;;-143.76
70389;BMP280;58659;49.050;8.530;2023-06-24T11:50:53;73326.13;;;-143.76
70389;BMP280;58659;49.050;8.530;2023-06-24T11:56:04;73326.13;;;-143.76
70389;BMP280;58659;49.050;8.530;2023-06-24T11:58:34;73326.13;;;-143.76
70389;BMP280;58659;49.050;8.530;2023-06-24T12:00:59;73326.13;;;-143.76
70389;BMP280;58659;49.050;8.530;2023-06-24T12:03:25;73326.13;;;-143.76
70389;BMP280;58659;49.050;8.530;2023-06-24T12:05:50;73326.13;;;-143.76
70389;BMP280;58659;49.050;8.530;2023-06-24T12:08:17;73326.13;;;-143.76
70389;BMP280;58659;49.050;8.530;2023-06-24T12:10:43;73326.13;;;-143.76
70389;BMP280;58659;49.050;8.530;2023-06-24T12:13:08;73326.13;;;-143.76
70389;BMP280;58659;49.050;8.530;2023-06-24T12:15:33;73326.13;;;-143.76
70389;BMP280;58659;49.050;8.530;2023-06-24T12:18:00;73326.13;;;-143.76
70389;BMP280;58659;49.050;8.530;2023-06-24T12:20:26;73326.13;;;-143.76
70389;BMP280;58659;49.050;8.530;2023-06-24T12:22:51;73326.13;;;-143.76
70389;BMP280;58659;49.050;8.530;2023-06-24T12:25:18;73326.13;;;-143.76
70389;BMP280;58659;49.050;8.530;2023-06-24T12:27:43;73326.13;;;-143.76
70389;BMP280;58659;49.050;8.530;2023-06-24T12:30:09;73326.13;;;-143.76
70389;BMP280;58659;49.050;8.530;2023-06-24T12:32:34;73326.13;;;-143.76
70389;BMP280;58659;49.050;8.530;2023-06-24T12:34:59;73326.13;;;-143.76
70389;BMP280;58659;49.050;8.530;2023-06-24T12:37:25;73326.13;;;-143.76
70389;BMP280;58659;49.050;8.530;2023-06-24T12:39:51;73326.13;;;-143.76
70389;BMP280;58659;49.050;8.530;2023-06-24T12:42:17;73326.13;;;-143.76
70389;BMP280;58659;49.050;8.530;2023-06-24T12:44:42;73326.13;;;-143.76
70389;BMP280;58659;49.050;8.530;2023-06-24T12:47:07;73326.13;;;-143.76
70389;BMP280;58659;49.050;8.530;2023-06-24T12:49:33;73326.13;;;-143.76
70389;BMP280;58659;49.050;8.530;2023-06-24T12:51:59;73326.13;;;-143.76
70389;BMP280;58659;49.050;8.530;2023-06-24T12:54:24;73326.13;;;-143.76
70389;BMP280;58659;49.050;8.530;2023-06-24T12:56:50;73326.13;;;-143.76
70389;BMP280;58659;49.050;8.530;2023-06-24T12:59:15;73326.13;;;-143.76
70389;BMP280;58659;49.050;8.530;2023-06-24T13:01:40;73326.13;;;-143.76
70389;BMP280;58659;49.050;8.530;2023-06-24T13:04:09;73326.13;;;-143.76
70389;BMP280;58659;49.050;8.530;2023-06-24T13:06:38;73326.13;;;-143.76
70389;BMP280;58659;49.050;8.530;2023-06-24T13:09:03;73326.13;;;-143.76
70389;BMP280;58659;49.050;8.530;2023-06-24T13:11:28;73326.13;;;-143.76
70389;BMP280;58659;49.050;8.530;2023-06-24T13:13:54;73326.13;;;-143.76
70389;BMP280;58659;49.050;8.530;2023-06-24T13:16:19;73326.13;;;-143.76
70389;BMP280;58659;49.050;8.530;2023-06-24T13:18:44;73326.13;;;-143.76
70389;BMP280;58659;49.050;8.530;2023-06-24T13:21:10;73326.13;;;-143.76
70389;BMP280;58659;49.050;8.530;2023-06-24T13:23:35;73326.13;;;-143.76
70389;BMP280;58659;49.050;8.530;2023-06-24T13:26:02;73326.13;;;-143.76
70389;BMP280;58659;49.050;8.530;2023-06-24T13:28:28;73326.13;;;-143.76
70389;BMP280;58659;49.050;8.530;2023-06-24T13:30:56;73326.13;;;-143.76
70389;BMP280;58659;49.050;8.530;2023-06-24T13:33:21;73326.13;;;-143.76
70389;BMP280;58659;49.050;8.530;2023-06-24T13:35:47;73326.13;;;-143.76
70389;BMP280;58659;49.050;8.530;2023-06-24T13:38:14;73326.13;;;-143.76
70389;BMP280;58659;49.050;8.530;2023-06-24T13:40:39;73326.13;;;-143.76
70389;BMP280;58659;49.050;8.530;2023-06-24T13:43:04;73326.13;;;-143.76
70389;BMP280;58659;49.050;8.530;2023-06-24T13:45:30;73326.13;;;-143.76
70389;BMP280;58659;49.050;8.530;2023-06-24T13:47:55;73326.13;;;-143.76
70389;BMP280;58659;49.050;8.530;2023-06-24T13:50:20;73326.13;;;-143.76
70389;BMP280;58659;49.050;8.530;2023-06-24T13:52:45;73326.13;;;-143.76
70389;BMP280;58659;49.050;8.530;2023-06-24T13:55:11;73326.13;;;-143.76
70389;BMP280;58659;49.050;8.530;2023-06-24T13:57:36;73326.13;;;-143.76
70389;BMP280;58659;49.050;8.530;2023-06-24T14:00:04;73326.13;;;-143.76
70389;BMP280;58659;49.050;8.530;2023-06-24T14:02:39;73326.13;;;-143.76
70389;BMP280;58659;49.050;8.530;2023-06-24T14:05:05;73326.13;;;-143.76
70389;BMP280;58659;49.050;8.530;2023-06-24T14:07:30;73326.13;;;-143.76
70389;BMP280;58659;49.050;8.530;2023-06-24T14:09:55;73326.13;;;-143.76
70389;BMP280;58659;49.050;8.530;2023-06-24T14:12:20;73326.13;;;-143.76
70389;BMP280;58659;49.050;8.530;2023-06-24T14:14:46;73326.13;;;-143.76
70389;BMP280;58659;49.050;8.530;2023-06-24T14:17:11;73326.13;;;-143.76
70389;BMP280;58659;49.050;8.530;2023-06-24T14:19:37;73326.13;;;-143.76